Time;durP1;ratioP1;P1;durP2;ratioP2;P2;SDS_P1;SDS_P2;PMS_P1;PMS_P2;Temp;Humidity;BMP_temperature;BMP_pressure;BME280_temperature;BME280_humidity;BME280_pressure;Samples;Min_cycle;Max_cycle;Signal;HPM_P1;HPM_P2
2021/12/27 00:00:43;;;;;;;;;;;1.50;99.90;;;;;;5056715;28;19913;-77
2021/12/27 00:03:08;;;;;;;;;;;1.50;99.90;;;;;;5056522;28;20349;-78
2021/12/27 00:05:34;;;;;;;;;;;1.50;99.90;;;;;;5071976;28;19913;-77
2021/12/27 00:07:59;;;;;;;;;;;1.60;99.90;;;;;;5056508;28;20003;-77
2021/12/27 00:10:27;;;;;;;;;;;1.50;99.90;;;;;;5056584;28;19912;-77
2021/12/27 00:12:52;;;;;;;;;;;1.60;99.90;;;;;;5056628;28;19909;-77
2021/12/27 00:15:19;;;;;;;;;;;1.60;99.90;;;;;;5072143;28;19998;-77
2021/12/27 00:17:45;;;;;;;;;;;1.50;99.90;;;;;;5072091;28;19921;-77
2021/12/27 00:20:12;;;;;;;;;;;1.60;99.90;;;;;;5056568;28;19913;-78
2021/12/27 00:22:37;;;;;;;;;;;1.60;99.90;;;;;;5071916;28;20262;-77
2021/12/27 00:25:06;;;;;;;;;;;1.60;99.90;;;;;;5056450;28;19909;-78
2021/12/27 00:27:32;;;;;;;;;;;1.60;99.90;;;;;;5055162;28;19917;-79
2021/12/27 00:29:57;;;;;;;;;;;1.60;99.90;;;;;;5056246;28;19909;-78
2021/12/27 00:32:23;;;;;;;;;;;1.60;99.90;;;;;;5071531;28;19908;-78
2021/12/27 00:34:48;;;;;;;;;;;1.60;99.90;;;;;;5056004;28;20327;-79
2021/12/27 00:37:14;;;;;;;;;;;1.70;99.90;;;;;;5035553;28;20220;-78
2021/12/27 00:39:39;;;;;;;;;;;1.70;99.90;;;;;;5035730;28;19909;-78
2021/12/27 00:42:05;;;;;;;;;;;1.70;99.90;;;;;;5035748;28;19910;-78
2021/12/27 00:44:31;;;;;;;;;;;1.70;99.90;;;;;;5035777;28;19932;-78
2021/12/27 00:46:57;;;;;;;;;;;1.70;99.90;;;;;;5034560;28;19914;-77
2021/12/27 00:49:22;;;;;;;;;;;1.70;99.90;;;;;;5036025;28;19909;-78
2021/12/27 00:51:48;;;;;;;;;;;1.70;99.90;;;;;;5034619;28;19958;-78
2021/12/27 00:54:14;;;;;;;;;;;1.70;99.90;;;;;;5035657;28;19964;-78
2021/12/27 00:56:39;;;;;;;;;;;1.70;99.90;;;;;;5035702;28;20228;-78
2021/12/27 00:59:05;;;;;;;;;;;1.70;99.90;;;;;;5034439;28;20641;-76
2021/12/27 01:01:30;;;;;;;;;;;1.70;99.90;;;;;;5034468;28;20267;-79
2021/12/27 01:03:56;;;;;;;;;;;1.70;99.90;;;;;;5037923;28;19913;-78
2021/12/27 01:06:21;;;;;;;;;;;1.80;99.90;;;;;;5055629;28;19912;-78
2021/12/27 01:08:47;;;;;;;;;;;1.80;99.90;;;;;;5055450;28;19913;-76
2021/12/27 01:13:46;;;;;;;;;;;1.80;99.90;;;;;;5055357;28;19909;-78
2021/12/27 01:16:12;;;;;;;;;;;1.80;99.90;;;;;;5055470;28;19928;-78
2021/12/27 01:18:40;;;;;;;;;;;1.80;99.90;;;;;;5055298;28;19982;-78
2021/12/27 01:21:06;;;;;;;;;;;1.90;99.90;;;;;;5070938;28;19923;-78
2021/12/27 01:23:31;;;;;;;;;;;1.90;99.90;;;;;;5052530;28;19913;-78
2021/12/27 01:25:57;;;;;;;;;;;1.90;99.90;;;;;;5034206;28;20020;-78
2021/12/27 01:28:22;;;;;;;;;;;1.90;99.90;;;;;;5034101;28;19914;-78
2021/12/27 01:30:49;;;;;;;;;;;1.90;99.90;;;;;;5035242;28;20304;-79
2021/12/27 01:33:16;;;;;;;;;;;1.90;99.90;;;;;;5034006;28;19971;-77
2021/12/27 01:35:42;;;;;;;;;;;1.90;99.90;;;;;;5034405;28;20204;-78
2021/12/27 01:38:08;;;;;;;;;;;1.90;99.90;;;;;;5034000;28;19963;-79
2021/12/27 01:40:34;;;;;;;;;;;1.90;99.90;;;;;;5033999;28;19917;-77
2021/12/27 01:43:13;;;;;;;;;;;1.90;99.90;;;;;;5035108;28;19915;-78
2021/12/27 01:45:38;;;;;;;;;;;2.00;99.90;;;;;;5033894;28;19924;-78
2021/12/27 01:48:06;;;;;;;;;;;2.00;99.90;;;;;;5033857;28;20312;-78
2021/12/27 01:50:32;;;;;;;;;;;2.00;99.90;;;;;;5035772;28;19952;-79
2021/12/27 01:52:57;;;;;;;;;;;2.00;99.90;;;;;;5038044;28;20010;-78
2021/12/27 01:55:23;;;;;;;;;;;2.10;99.90;;;;;;5039269;28;19913;-78
2021/12/27 01:57:49;;;;;;;;;;;2.00;99.90;;;;;;5037875;28;19925;-78
2021/12/27 02:00:14;;;;;;;;;;;2.10;99.90;;;;;;5038829;28;20263;-78
2021/12/27 02:02:40;;;;;;;;;;;2.10;99.90;;;;;;5039144;28;19999;-77
2021/12/27 02:05:06;;;;;;;;;;;2.10;99.90;;;;;;5034543;28;20012;-76
2021/12/27 02:07:31;;;;;;;;;;;2.10;99.90;;;;;;5057737;28;19913;-76
2021/12/27 02:10:02;;;;;;;;;;;2.10;99.90;;;;;;5058712;28;19909;-76
2021/12/27 02:12:31;;;;;;;;;;;2.10;99.90;;;;;;5074254;28;20181;-75
2021/12/27 02:14:57;;;;;;;;;;;2.10;99.90;;;;;;5074084;28;19909;-76
2021/12/27 02:17:22;;;;;;;;;;;2.10;99.90;;;;;;5074277;28;19909;-76
2021/12/27 02:19:49;;;;;;;;;;;2.10;99.90;;;;;;5058535;28;19912;-76
2021/12/27 02:22:15;;;;;;;;;;;2.10;99.90;;;;;;5058367;28;19935;-76
2021/12/27 02:24:41;;;;;;;;;;;2.20;99.90;;;;;;5058374;28;19912;-76
2021/12/27 02:27:06;;;;;;;;;;;2.20;99.90;;;;;;5057250;28;19919;-76
2021/12/27 02:29:32;;;;;;;;;;;2.20;99.90;;;;;;5058339;28;19949;-75
2021/12/27 02:31:58;;;;;;;;;;;2.20;99.90;;;;;;5058268;28;19913;-76
2021/12/27 02:34:23;;;;;;;;;;;2.20;99.90;;;;;;5058168;28;19909;-76
2021/12/27 02:36:49;;;;;;;;;;;2.20;99.90;;;;;;5058291;28;20308;-76
2021/12/27 02:39:15;;;;;;;;;;;2.20;99.90;;;;;;5058240;28;19917;-76
2021/12/27 02:41:41;;;;;;;;;;;2.20;99.90;;;;;;5057935;28;19912;-76
2021/12/27 02:44:06;;;;;;;;;;;2.20;99.90;;;;;;5073338;28;19932;-76
2021/12/27 02:46:32;;;;;;;;;;;2.30;99.90;;;;;;5057015;28;19908;-76
2021/12/27 02:48:58;;;;;;;;;;;2.30;99.90;;;;;;5058031;28;20217;-75
2021/12/27 02:51:23;;;;;;;;;;;2.30;99.90;;;;;;5058127;28;19909;-76
2021/12/27 02:53:49;;;;;;;;;;;2.30;99.90;;;;;;5057755;28;20616;-76
2021/12/27 02:56:15;;;;;;;;;;;2.30;99.90;;;;;;5057947;28;20315;-76
2021/12/27 02:58:41;;;;;;;;;;;2.30;99.90;;;;;;5073413;28;20390;-76
2021/12/27 03:01:08;;;;;;;;;;;2.30;99.90;;;;;;5072759;28;19917;-76
2021/12/27 03:03:34;;;;;;;;;;;2.30;99.90;;;;;;5057681;28;19916;-76
2021/12/27 03:06:00;;;;;;;;;;;2.30;99.90;;;;;;5073126;28;19909;-77
2021/12/27 03:08:26;;;;;;;;;;;2.30;99.90;;;;;;5056738;28;19952;-76
2021/12/27 03:10:54;;;;;;;;;;;2.30;99.90;;;;;;5057538;28;19913;-76
2021/12/27 03:13:21;;;;;;;;;;;2.30;99.90;;;;;;5057590;28;19913;-76
2021/12/27 03:15:50;;;;;;;;;;;2.30;99.90;;;;;;5057500;28;19952;-76
2021/12/27 03:18:16;;;;;;;;;;;2.30;99.90;;;;;;5072949;28;19912;-76
2021/12/27 03:20:41;;;;;;;;;;;2.30;99.90;;;;;;5056073;28;19928;-76
2021/12/27 03:23:07;;;;;;;;;;;2.40;99.90;;;;;;5056284;28;20197;-76
2021/12/27 03:25:33;;;;;;;;;;;2.30;99.90;;;;;;5057405;28;20271;-76
2021/12/27 03:27:58;;;;;;;;;;;2.30;99.90;;;;;;5056229;28;19912;-76
2021/12/27 03:30:26;;;;;;;;;;;2.40;99.90;;;;;;5056361;28;20373;-76
2021/12/27 03:32:51;;;;;;;;;;;2.40;99.90;;;;;;5057510;28;19956;-76
2021/12/27 03:35:25;;;;;;;;;;;2.30;99.90;;;;;;5056236;28;19956;-76
2021/12/27 03:37:52;;;;;;;;;;;2.30;99.90;;;;;;5056455;28;19909;-76
2021/12/27 03:40:18;;;;;;;;;;;2.30;99.90;;;;;;5057198;28;19961;-76
2021/12/27 03:42:49;;;;;;;;;;;2.40;99.90;;;;;;5057029;28;19908;-76
2021/12/27 03:45:16;;;;;;;;;;;2.40;99.90;;;;;;5056803;28;19929;-76
2021/12/27 03:47:41;;;;;;;;;;;2.40;99.90;;;;;;5039254;28;19966;-77
2021/12/27 03:50:07;;;;;;;;;;;2.40;99.90;;;;;;5055850;28;20003;-76
2021/12/27 03:52:32;;;;;;;;;;;2.40;99.90;;;;;;5039069;28;19916;-76
2021/12/27 03:54:58;;;;;;;;;;;2.40;99.90;;;;;;5056562;28;19913;-80
2021/12/27 03:57:24;;;;;;;;;;;2.40;99.90;;;;;;5055656;28;19955;-76
2021/12/27 04:00:13;;;;;;;;;;;2.40;99.90;;;;;;5056647;28;19913;-76
2021/12/27 04:02:37;;;;;;;;;;;2.40;99.90;;;;;;5056613;28;19919;-77
2021/12/27 04:05:03;;;;;;;;;;;2.40;99.90;;;;;;5055160;28;19916;-76
2021/12/27 04:07:33;;;;;;;;;;;2.40;99.90;;;;;;5056652;28;19916;-76
2021/12/27 04:09:59;;;;;;;;;;;2.40;99.90;;;;;;5055189;28;19959;-77
2021/12/27 04:12:24;;;;;;;;;;;2.40;99.90;;;;;;5055769;28;20247;-76
2021/12/27 04:14:50;;;;;;;;;;;2.40;99.90;;;;;;5056119;28;19948;-76
2021/12/27 04:17:15;;;;;;;;;;;2.40;99.90;;;;;;5055361;28;19912;-76
2021/12/27 04:19:41;;;;;;;;;;;2.40;99.90;;;;;;5056242;28;19913;-76
2021/12/27 04:22:07;;;;;;;;;;;2.40;99.90;;;;;;5055094;28;20403;-76
2021/12/27 04:24:32;;;;;;;;;;;2.50;99.90;;;;;;5054365;28;19939;-76
2021/12/27 04:26:58;;;;;;;;;;;2.50;99.90;;;;;;5054971;28;19947;-76
2021/12/27 04:29:23;;;;;;;;;;;2.50;99.90;;;;;;5055192;28;20259;-76
2021/12/27 04:31:49;;;;;;;;;;;2.50;99.90;;;;;;5056063;28;19912;-76
2021/12/27 04:34:14;;;;;;;;;;;2.50;99.90;;;;;;5055953;28;19917;-77
2021/12/27 04:36:40;;;;;;;;;;;2.50;99.90;;;;;;5055984;28;19909;-77
2021/12/27 04:39:07;;;;;;;;;;;2.50;99.90;;;;;;5056014;28;19917;-76
2021/12/27 04:41:33;;;;;;;;;;;2.50;99.90;;;;;;5071286;28;20261;-76
2021/12/27 04:43:59;;;;;;;;;;;2.50;99.90;;;;;;5054496;28;19999;-76
2021/12/27 04:46:25;;;;;;;;;;;2.60;99.90;;;;;;5055752;28;19912;-76
2021/12/27 04:48:52;;;;;;;;;;;2.60;99.90;;;;;;5071467;28;19909;-76
2021/12/27 04:51:20;;;;;;;;;;;2.60;99.90;;;;;;5055683;28;19962;-76
2021/12/27 04:53:46;;;;;;;;;;;2.60;99.90;;;;;;5055599;28;20003;-76
2021/12/27 04:56:12;;;;;;;;;;;2.70;99.90;;;;;;5054451;28;19909;-76
2021/12/27 04:58:37;;;;;;;;;;;2.70;99.90;;;;;;5055694;28;19948;-76
2021/12/27 05:01:03;;;;;;;;;;;2.70;99.90;;;;;;5054147;28;19935;-75
2021/12/27 05:03:28;;;;;;;;;;;2.70;99.90;;;;;;5055504;28;19916;-76
2021/12/27 05:05:54;;;;;;;;;;;2.70;99.90;;;;;;5055289;28;19912;-76
2021/12/27 05:08:19;;;;;;;;;;;2.60;99.90;;;;;;5070995;28;19958;-76
2021/12/27 05:10:45;;;;;;;;;;;2.60;99.90;;;;;;5055247;28;19991;-76
2021/12/27 05:13:11;;;;;;;;;;;2.60;99.90;;;;;;5070948;28;19913;-76
2021/12/27 05:15:37;;;;;;;;;;;2.60;99.90;;;;;;5055333;28;20201;-76
2021/12/27 05:18:02;;;;;;;;;;;2.60;99.90;;;;;;5070999;28;19916;-76
2021/12/27 05:20:28;;;;;;;;;;;2.70;99.90;;;;;;5055003;28;19913;-76
2021/12/27 05:22:53;;;;;;;;;;;2.70;99.90;;;;;;5055314;28;19919;-76
2021/12/27 05:25:19;;;;;;;;;;;2.70;99.90;;;;;;5054903;28;19958;-76
2021/12/27 05:27:45;;;;;;;;;;;2.80;99.90;;;;;;5055353;28;19916;-76
2021/12/27 05:30:14;;;;;;;;;;;2.80;99.90;;;;;;5070770;28;20194;-76
2021/12/27 05:32:40;;;;;;;;;;;2.80;99.90;;;;;;5057797;28;19917;-76
2021/12/27 05:35:07;;;;;;;;;;;2.80;99.90;;;;;;5035101;28;19920;-76
2021/12/27 05:37:32;;;;;;;;;;;2.70;99.90;;;;;;5034861;28;19952;-76
2021/12/27 05:40:04;;;;;;;;;;;2.80;99.90;;;;;;5035029;28;19961;-75
2021/12/27 05:42:30;;;;;;;;;;;2.80;99.90;;;;;;5035199;28;19913;-76
2021/12/27 05:44:56;;;;;;;;;;;2.80;99.90;;;;;;5034883;28;19929;-76
2021/12/27 05:47:21;;;;;;;;;;;2.80;99.90;;;;;;5034922;28;19909;-75
2021/12/27 05:49:47;;;;;;;;;;;2.90;99.90;;;;;;5035124;28;19916;-76
2021/12/27 05:52:13;;;;;;;;;;;2.90;99.90;;;;;;5050495;28;20308;-75
2021/12/27 05:54:38;;;;;;;;;;;2.90;99.90;;;;;;5050458;28;19913;-75
2021/12/27 05:57:04;;;;;;;;;;;2.90;99.90;;;;;;5050381;28;19952;-76
2021/12/27 05:59:29;;;;;;;;;;;2.90;99.90;;;;;;5034930;28;20312;-75
2021/12/27 06:01:56;;;;;;;;;;;3.00;99.90;;;;;;5050337;28;20288;-76
2021/12/27 06:04:22;;;;;;;;;;;2.90;99.90;;;;;;5057528;28;19913;-75
2021/12/27 06:06:47;;;;;;;;;;;3.00;99.90;;;;;;5054817;28;20319;-75
2021/12/27 06:09:13;;;;;;;;;;;3.00;99.90;;;;;;5054878;28;19956;-75
2021/12/27 06:11:38;;;;;;;;;;;3.00;99.90;;;;;;5070333;28;19916;-76
2021/12/27 06:14:04;;;;;;;;;;;3.00;99.90;;;;;;5054838;28;19920;-75
2021/12/27 06:16:30;;;;;;;;;;;3.10;99.90;;;;;;5054607;28;19913;-76
2021/12/27 06:18:56;;;;;;;;;;;3.00;99.90;;;;;;5054858;28;20000;-76
2021/12/27 06:21:21;;;;;;;;;;;3.00;99.90;;;;;;5053445;28;19916;-76
2021/12/27 06:23:47;;;;;;;;;;;3.00;99.90;;;;;;5054687;28;19916;-76
2021/12/27 06:26:13;;;;;;;;;;;3.00;99.90;;;;;;5054664;28;19916;-76
2021/12/27 06:28:38;;;;;;;;;;;3.00;99.90;;;;;;5053818;28;19916;-76
2021/12/27 06:31:04;;;;;;;;;;;3.00;99.90;;;;;;5054487;28;19916;-76
2021/12/27 06:33:30;;;;;;;;;;;3.00;99.90;;;;;;5054688;28;19909;-75
2021/12/27 06:35:56;;;;;;;;;;;3.00;99.90;;;;;;5053980;28;19924;-76
2021/12/27 06:38:22;;;;;;;;;;;3.00;99.90;;;;;;5058310;28;19967;-76
2021/12/27 06:40:51;;;;;;;;;;;3.00;99.90;;;;;;5058281;28;20193;-75
2021/12/27 06:43:17;;;;;;;;;;;3.00;99.90;;;;;;5073895;28;19916;-75
2021/12/27 06:45:43;;;;;;;;;;;3.00;99.90;;;;;;5073717;28;20259;-76
2021/12/27 06:48:09;;;;;;;;;;;3.10;99.90;;;;;;5073861;28;19966;-75
2021/12/27 06:50:34;;;;;;;;;;;3.10;99.90;;;;;;5074027;28;19916;-76
2021/12/27 06:53:00;;;;;;;;;;;3.20;99.90;;;;;;5058202;28;19908;-75
2021/12/27 06:55:26;;;;;;;;;;;3.20;99.90;;;;;;5073688;28;19981;-76
2021/12/27 06:57:51;;;;;;;;;;;3.20;99.90;;;;;;5057991;28;20378;-75
2021/12/27 07:00:17;;;;;;;;;;;3.20;99.90;;;;;;5057717;28;19913;-76
2021/12/27 07:02:43;;;;;;;;;;;3.20;99.90;;;;;;5057819;28;20350;-79
2021/12/27 07:05:09;;;;;;;;;;;3.20;99.90;;;;;;5055209;28;20271;-76
2021/12/27 07:07:34;;;;;;;;;;;3.20;99.90;;;;;;5052463;28;20170;-76
2021/12/27 07:10:00;;;;;;;;;;;3.20;99.90;;;;;;5036955;28;20214;-76
2021/12/27 07:12:26;;;;;;;;;;;3.30;99.90;;;;;;5050256;28;19913;-76
2021/12/27 07:14:53;;;;;;;;;;;3.30;99.90;;;;;;5040973;28;19949;-79
2021/12/27 07:17:19;;;;;;;;;;;3.30;99.90;;;;;;5036596;28;19909;-76
2021/12/27 07:19:45;;;;;;;;;;;3.30;99.90;;;;;;5037359;28;20239;-76
2021/12/27 07:22:10;;;;;;;;;;;3.20;99.90;;;;;;5036291;28;20004;-76
2021/12/27 07:24:36;;;;;;;;;;;3.20;99.90;;;;;;5037403;28;20347;-75
2021/12/27 07:27:01;;;;;;;;;;;3.20;99.90;;;;;;5037425;28;20023;-75
2021/12/27 07:29:27;;;;;;;;;;;3.20;99.90;;;;;;5036113;28;19913;-76
2021/12/27 07:31:53;;;;;;;;;;;3.30;99.90;;;;;;5037324;28;20308;-76
2021/12/27 07:34:19;;;;;;;;;;;3.30;99.90;;;;;;5043000;28;19909;-75
2021/12/27 07:36:48;;;;;;;;;;;3.30;99.90;;;;;;5057159;28;20320;-76
2021/12/27 07:39:14;;;;;;;;;;;3.30;99.90;;;;;;5057065;28;19908;-75
2021/12/27 07:41:40;;;;;;;;;;;3.30;99.90;;;;;;5072644;28;19913;-75
2021/12/27 07:44:05;;;;;;;;;;;3.30;99.90;;;;;;5056651;28;19917;-76
2021/12/27 07:46:31;;;;;;;;;;;3.30;99.90;;;;;;5072631;28;19948;-75
2021/12/27 07:48:56;;;;;;;;;;;3.40;99.90;;;;;;5055729;28;20284;-76
2021/12/27 07:51:22;;;;;;;;;;;3.50;99.90;;;;;;5056990;28;19916;-75
2021/12/27 07:53:48;;;;;;;;;;;3.50;99.90;;;;;;5072159;28;20327;-75
2021/12/27 07:56:13;;;;;;;;;;;3.60;99.90;;;;;;5056864;28;20263;-76
2021/12/27 07:58:39;;;;;;;;;;;3.60;99.90;;;;;;5072210;28;20246;-75
2021/12/27 08:01:05;;;;;;;;;;;3.60;99.90;;;;;;5056623;28;19916;-75
2021/12/27 08:03:32;;;;;;;;;;;3.60;99.90;;;;;;5056533;28;19971;-75
2021/12/27 08:05:57;;;;;;;;;;;3.70;99.90;;;;;;5072230;28;19909;-76
2021/12/27 08:08:23;;;;;;;;;;;3.70;99.90;;;;;;5045181;28;20301;-76
2021/12/27 08:10:48;;;;;;;;;;;3.70;99.90;;;;;;5036380;28;19909;-75
2021/12/27 08:13:14;;;;;;;;;;;3.70;99.90;;;;;;5036240;28;20265;-75
2021/12/27 08:15:40;;;;;;;;;;;3.80;99.90;;;;;;5036568;28;20271;-76
2021/12/27 08:18:05;;;;;;;;;;;3.80;99.90;;;;;;5036494;28;20003;-76
2021/12/27 08:20:31;;;;;;;;;;;3.80;99.90;;;;;;5036351;28;19924;-75
2021/12/27 08:22:57;;;;;;;;;;;3.90;99.90;;;;;;5036264;28;19909;-75
2021/12/27 08:25:23;;;;;;;;;;;3.90;99.90;;;;;;5036109;28;19913;-75
2021/12/27 08:27:48;;;;;;;;;;;3.90;99.90;;;;;;5035137;28;19930;-75
2021/12/27 08:30:14;;;;;;;;;;;3.90;99.90;;;;;;5035064;28;19913;-75
2021/12/27 08:32:41;;;;;;;;;;;3.90;99.90;;;;;;5048874;28;19913;-75
2021/12/27 08:35:07;;;;;;;;;;;3.90;99.90;;;;;;5066499;28;19912;-75
2021/12/27 08:37:33;;;;;;;;;;;4.00;99.90;;;;;;5037841;28;19909;-75
2021/12/27 08:39:59;;;;;;;;;;;4.00;99.90;;;;;;5035212;28;20004;-75
2021/12/27 08:42:26;;;;;;;;;;;3.90;99.90;;;;;;5038063;28;19913;-75
2021/12/27 08:44:52;;;;;;;;;;;3.90;99.90;;;;;;5050161;28;19971;-75
2021/12/27 08:47:18;;;;;;;;;;;3.90;99.90;;;;;;5053379;28;19955;-75
2021/12/27 08:49:44;;;;;;;;;;;3.90;99.90;;;;;;5050203;28;19909;-75
2021/12/27 08:52:10;;;;;;;;;;;3.90;99.90;;;;;;5040711;28;19913;-75
2021/12/27 08:54:35;;;;;;;;;;;3.90;99.90;;;;;;5053069;28;19975;-75
2021/12/27 08:57:04;;;;;;;;;;;3.90;99.90;;;;;;5050258;28;19917;-75
2021/12/27 08:59:30;;;;;;;;;;;3.90;99.90;;;;;;5049936;28;19913;-75
2021/12/27 09:01:55;;;;;;;;;;;3.90;99.90;;;;;;5037763;28;20312;-75
2021/12/27 09:04:22;;;;;;;;;;;4.00;99.90;;;;;;5052765;28;20321;-75
2021/12/27 09:06:48;;;;;;;;;;;4.00;99.90;;;;;;5040701;28;20305;-75
2021/12/27 09:09:15;;;;;;;;;;;4.00;99.90;;;;;;5052771;28;19979;-75
2021/12/27 09:11:41;;;;;;;;;;;4.00;99.90;;;;;;5034425;28;19936;-75
2021/12/27 09:14:07;;;;;;;;;;;4.00;99.90;;;;;;5035151;28;20237;-75
2021/12/27 09:16:32;;;;;;;;;;;4.00;99.90;;;;;;5037318;28;19920;-75
2021/12/27 09:18:58;;;;;;;;;;;4.10;99.90;;;;;;5052822;28;19991;-75
2021/12/27 09:21:24;;;;;;;;;;;4.10;99.90;;;;;;5039793;28;20014;-75
2021/12/27 09:23:50;;;;;;;;;;;4.20;99.90;;;;;;5040040;28;19913;-75
2021/12/27 09:26:16;;;;;;;;;;;4.10;99.90;;;;;;5042974;28;20011;-76
2021/12/27 09:28:43;;;;;;;;;;;4.20;99.90;;;;;;5034637;28;20004;-75
2021/12/27 09:31:08;;;;;;;;;;;4.20;99.90;;;;;;5037247;28;19913;-75
2021/12/27 09:33:34;;;;;;;;;;;4.20;99.90;;;;;;5034568;28;19909;-76
2021/12/27 09:35:59;;;;;;;;;;;4.20;99.90;;;;;;5036224;28;20012;-76
2021/12/27 09:38:25;;;;;;;;;;;4.20;99.90;;;;;;5034415;28;20004;-75
2021/12/27 09:40:51;;;;;;;;;;;4.30;99.90;;;;;;5045431;28;19963;-76
2021/12/27 09:43:16;;;;;;;;;;;4.30;99.90;;;;;;5055294;28;19948;-75
2021/12/27 09:45:42;;;;;;;;;;;4.40;99.90;;;;;;5034426;28;20224;-76
2021/12/27 09:48:08;;;;;;;;;;;4.40;99.90;;;;;;5040229;28;20004;-75
2021/12/27 09:50:40;;;;;;;;;;;4.40;99.90;;;;;;5041419;28;20007;-76
2021/12/27 09:53:06;;;;;;;;;;;4.50;99.90;;;;;;5039954;28;19913;-75
2021/12/27 09:55:32;;;;;;;;;;;4.50;99.90;;;;;;5053117;28;20204;-75
2021/12/27 09:57:59;;;;;;;;;;;4.50;99.90;;;;;;5039620;28;19971;-75
2021/12/27 10:00:26;;;;;;;;;;;4.60;99.90;;;;;;5052411;28;19940;-75
2021/12/27 10:02:52;;;;;;;;;;;4.60;99.90;;;;;;5037368;28;19917;-76
2021/12/27 10:05:20;;;;;;;;;;;4.60;99.90;;;;;;5040112;28;19917;-75
2021/12/27 10:07:45;;;;;;;;;;;4.60;99.90;;;;;;5040242;28;19916;-76
2021/12/27 10:10:11;;;;;;;;;;;4.70;99.90;;;;;;5034688;28;19917;-75
2021/12/27 10:12:38;;;;;;;;;;;4.70;99.90;;;;;;5043240;28;19913;-75
2021/12/27 10:15:09;;;;;;;;;;;4.70;99.90;;;;;;5056475;28;19915;-75
2021/12/27 10:17:36;;;;;;;;;;;4.80;99.90;;;;;;5053349;28;19916;-76
2021/12/27 10:20:08;;;;;;;;;;;4.80;99.90;;;;;;5053279;28;20625;-75
2021/12/27 10:22:41;;;;;;;;;;;4.80;99.90;;;;;;5056090;28;19980;-75
2021/12/27 10:25:14;;;;;;;;;;;4.90;99.90;;;;;;5058547;28;19919;-75
2021/12/27 10:27:40;;;;;;;;;;;4.90;99.90;;;;;;5053313;28;19908;-76
2021/12/27 10:30:10;;;;;;;;;;;4.90;99.90;;;;;;5037727;28;19917;-75
2021/12/27 10:32:35;;;;;;;;;;;4.90;99.90;;;;;;5055774;28;20016;-75
2021/12/27 10:35:04;;;;;;;;;;;5.00;99.90;;;;;;5042769;28;20619;-75
2021/12/27 10:37:31;;;;;;;;;;;5.00;99.90;;;;;;5052994;28;19919;-75
2021/12/27 10:40:02;;;;;;;;;;;5.10;99.90;;;;;;5037553;28;19913;-75
2021/12/27 10:42:36;;;;;;;;;;;5.10;99.90;;;;;;5040476;28;19913;-75
2021/12/27 10:45:07;;;;;;;;;;;5.20;99.90;;;;;;5045557;28;20304;-76
2021/12/27 10:47:37;;;;;;;;;;;5.30;99.90;;;;;;5052830;28;19912;-75
2021/12/27 10:50:07;;;;;;;;;;;5.40;99.90;;;;;;5037382;28;20297;-75
2021/12/27 10:53:02;;;;;;;;;;;5.40;99.90;;;;;;5056832;28;19913;-75
2021/12/27 10:55:37;;;;;;;;;;;5.50;99.90;;;;;;5038151;28;19912;-76
2021/12/27 10:58:10;;;;;;;;;;;5.50;99.90;;;;;;5038209;28;20239;-76
2021/12/27 11:00:36;;;;;;;;;;;5.60;99.90;;;;;;5038125;28;19917;-76
2021/12/27 11:03:02;;;;;;;;;;;5.60;99.90;;;;;;5038229;28;19983;-76
2021/12/27 11:05:29;;;;;;;;;;;5.60;99.90;;;;;;5054745;28;19913;-76
2021/12/27 11:08:00;;;;;;;;;;;5.60;99.90;;;;;;5054819;28;19912;-76
2021/12/27 11:10:26;;;;;;;;;;;5.60;99.90;;;;;;5054933;28;20661;-76
2021/12/27 11:12:52;;;;;;;;;;;5.60;99.90;;;;;;5038009;28;20228;-75
2021/12/27 11:15:17;;;;;;;;;;;5.60;99.90;;;;;;5054765;28;19917;-76
2021/12/27 11:17:43;;;;;;;;;;;5.60;99.90;;;;;;5054307;28;19924;-76
2021/12/27 11:20:10;;;;;;;;;;;5.70;99.90;;;;;;5054441;28;19916;-76
2021/12/27 11:22:36;;;;;;;;;;;5.70;99.90;;;;;;5037221;28;19916;-76
2021/12/27 11:25:05;;;;;;;;;;;5.70;99.90;;;;;;5054496;28;20020;-76
2021/12/27 11:27:32;;;;;;;;;;;5.70;99.90;;;;;;5037908;28;19923;-76
2021/12/27 11:30:09;;;;;;;;;;;5.80;99.90;;;;;;5054630;28;19916;-76
2021/12/27 11:32:35;;;;;;;;;;;5.80;99.90;;;;;;5042274;28;19917;-76
2021/12/27 11:35:09;;;;;;;;;;;5.80;99.90;;;;;;5041681;28;19909;-76
2021/12/27 11:37:36;;;;;;;;;;;5.80;99.90;;;;;;5036554;28;19909;-75
2021/12/27 11:40:05;;;;;;;;;;;5.90;99.90;;;;;;5051860;28;19913;-76
2021/12/27 11:42:50;;;;;;;;;;;5.90;99.90;;;;;;5036485;28;20017;-76
2021/12/27 11:45:35;;;;;;;;;;;5.90;99.90;;;;;;5036161;28;19982;-76
2021/12/27 11:48:08;;;;;;;;;;;6.00;99.90;;;;;;5036226;28;20267;-76
2021/12/27 11:50:33;;;;;;;;;;;6.10;99.90;;;;;;5057073;28;19921;-76
2021/12/27 11:53:06;;;;;;;;;;;6.10;99.90;;;;;;5041814;28;19912;-76
2021/12/27 11:55:38;;;;;;;;;;;6.20;99.90;;;;;;5051404;28;19927;-76
2021/12/27 11:58:04;;;;;;;;;;;6.20;99.90;;;;;;5036169;28;19913;-76
2021/12/27 12:00:29;;;;;;;;;;;6.30;99.90;;;;;;5054038;28;20200;-76
2021/12/27 12:03:06;;;;;;;;;;;6.40;99.90;;;;;;5036001;28;20030;-76
2021/12/27 12:05:36;;;;;;;;;;;6.40;99.90;;;;;;5035934;28;19936;-75
2021/12/27 12:08:02;;;;;;;;;;;6.40;99.90;;;;;;5051349;28;19912;-76
2021/12/27 12:10:30;;;;;;;;;;;6.40;99.90;;;;;;5038771;28;19909;-76
2021/12/27 12:13:14;;;;;;;;;;;6.50;99.90;;;;;;5041445;28;20197;-76
2021/12/27 12:16:00;;;;;;;;;;;6.50;99.90;;;;;;5052122;28;20058;-76
2021/12/27 12:18:26;;;;;;;;;;;6.50;99.90;;;;;;5039926;28;20328;-75
2021/12/27 12:20:52;;;;;;;;;;;6.50;99.90;;;;;;5050267;28;19924;-76
2021/12/27 12:23:18;;;;;;;;;;;6.50;99.90;;;;;;5053723;28;19987;-75
2021/12/27 12:25:43;;;;;;;;;;;6.60;99.90;;;;;;5049052;28;20300;-76
2021/12/27 12:28:15;;;;;;;;;;;6.60;99.90;;;;;;5035530;28;19972;-75
2021/12/27 12:30:48;;;;;;;;;;;6.60;99.90;;;;;;5035632;28;19917;-76
2021/12/27 12:33:15;;;;;;;;;;;6.60;99.90;;;;;;5045958;28;19916;-75
2021/12/27 12:35:45;;;;;;;;;;;6.60;99.90;;;;;;5039811;28;20009;-76
2021/12/27 12:38:12;;;;;;;;;;;6.70;99.90;;;;;;5035489;28;20220;-76
2021/12/27 12:40:37;;;;;;;;;;;6.70;99.90;;;;;;5056073;28;19921;-76
2021/12/27 12:43:03;;;;;;;;;;;6.70;99.90;;;;;;5040873;28;19913;-76
2021/12/27 12:45:29;;;;;;;;;;;6.70;99.90;;;;;;5040788;28;20371;-76
2021/12/27 12:47:55;;;;;;;;;;;6.70;99.90;;;;;;5050470;28;20736;-75
2021/12/27 12:50:21;;;;;;;;;;;6.60;99.90;;;;;;5054316;28;19913;-76
2021/12/27 12:52:51;;;;;;;;;;;6.60;99.90;;;;;;5044708;28;20357;-76
2021/12/27 12:55:19;;;;;;;;;;;6.60;99.90;;;;;;5035172;28;19913;-76
2021/12/27 12:57:49;;;;;;;;;;;6.50;99.90;;;;;;5046033;28;19920;-76
2021/12/27 13:00:19;;;;;;;;;;;6.60;99.90;;;;;;5050440;28;20010;-76
2021/12/27 13:02:45;;;;;;;;;;;6.60;99.90;;;;;;5034871;28;19920;-77
2021/12/27 13:05:15;;;;;;;;;;;6.50;99.90;;;;;;5034955;28;19913;-76
2021/12/27 13:07:44;;;;;;;;;;;6.50;99.90;;;;;;5050320;28;19916;-76
2021/12/27 13:10:21;;;;;;;;;;;6.50;99.90;;;;;;5050339;28;19909;-76
2021/12/27 13:12:47;;;;;;;;;;;6.50;99.90;;;;;;5050149;28;19913;-76
2021/12/27 13:15:20;;;;;;;;;;;6.50;99.90;;;;;;5035020;28;20308;-76
2021/12/27 13:18:03;;;;;;;;;;;6.50;99.90;;;;;;5052454;28;19975;-76
2021/12/27 13:20:30;;;;;;;;;;;6.50;99.90;;;;;;5039456;28;20015;-77
2021/12/27 13:22:57;;;;;;;;;;;6.60;99.90;;;;;;5040619;28;19917;-76
2021/12/27 13:25:42;;;;;;;;;;;6.60;99.90;;;;;;5040563;28;20010;-76
2021/12/27 13:28:13;;;;;;;;;;;6.50;99.90;;;;;;5035160;28;19909;-76
2021/12/27 13:30:46;;;;;;;;;;;6.50;99.90;;;;;;5035453;28;19963;-75
2021/12/27 13:33:12;;;;;;;;;;;6.60;99.90;;;;;;5035187;28;19913;-77
2021/12/27 13:35:40;;;;;;;;;;;6.60;99.90;;;;;;5046858;28;20013;-76
2021/12/27 13:38:19;;;;;;;;;;;6.60;99.90;;;;;;5049788;28;19917;-76
2021/12/27 13:40:46;;;;;;;;;;;6.60;99.90;;;;;;5034430;28;19924;-76
2021/12/27 13:43:12;;;;;;;;;;;6.60;99.90;;;;;;5049522;28;19921;-76
2021/12/27 13:45:41;;;;;;;;;;;6.60;99.90;;;;;;5042004;28;20012;-76
2021/12/27 13:48:07;;;;;;;;;;;6.50;99.90;;;;;;5046878;28;19912;-76
2021/12/27 13:50:33;;;;;;;;;;;6.50;99.90;;;;;;5038761;28;19955;-76
2021/12/27 13:52:59;;;;;;;;;;;6.50;99.90;;;;;;5056570;28;19909;-76
2021/12/27 13:55:26;;;;;;;;;;;6.50;99.90;;;;;;5053710;28;20279;-76
2021/12/27 13:57:52;;;;;;;;;;;6.50;99.90;;;;;;5038397;28;19917;-77
2021/12/27 14:00:23;;;;;;;;;;;6.50;99.90;;;;;;5038412;28;19924;-75
2021/12/27 14:02:49;;;;;;;;;;;6.50;99.90;;;;;;5060284;28;19913;-76
2021/12/27 14:05:15;;;;;;;;;;;6.50;99.90;;;;;;5059217;28;20390;-76
2021/12/27 14:07:42;;;;;;;;;;;6.50;99.90;;;;;;5038252;28;19920;-77
2021/12/27 14:10:07;;;;;;;;;;;6.50;99.90;;;;;;5061931;28;19912;-77
2021/12/27 14:12:36;;;;;;;;;;;6.50;99.90;;;;;;5038490;28;20000;-76
2021/12/27 14:15:06;;;;;;;;;;;6.50;99.90;;;;;;5037421;28;19913;-76
2021/12/27 14:17:32;;;;;;;;;;;6.50;99.90;;;;;;5038624;28;20231;-76
2021/12/27 14:20:01;;;;;;;;;;;6.50;99.90;;;;;;5037651;28;19914;-77
2021/12/27 14:22:46;;;;;;;;;;;6.50;99.90;;;;;;5037505;28;19917;-77
2021/12/27 14:25:14;;;;;;;;;;;6.60;99.90;;;;;;5038600;28;19960;-77
2021/12/27 14:27:49;;;;;;;;;;;6.50;99.90;;;;;;5038360;28;19909;-75
2021/12/27 14:30:15;;;;;;;;;;;6.50;99.90;;;;;;5037275;28;19913;-76
2021/12/27 14:32:46;;;;;;;;;;;6.60;99.90;;;;;;5037176;28;20209;-76